Vail, Washington
Current Conditions -  °F | °C
As of 5:21 AM on Wednesday 22 Oct 2014 (Local Time) from KOLM Reporting Station
Moderate Rain Moderate Rain  
Wind Chill: 55°   Ceiling: 3600
Heat Index: 55°   Visibility: 4mi
Dew Point: 52°   Wind: 18mph
Humidity: 89%   Direction: 180°S
Pressure: 29.66"   Gusts: 26mph
Location:  46.8214°N, 122.662°W
Report Text: KOLM 221221Z AUTO 18016G23KT 4SM RA BR SCT012 OVC036 13/11 A2966 RMK AO2 P0005 T01280111
Loading
Personal Weather Stations






























Interactive Weather Map New forecast layout! Learn more

10-Day Weather Forecast

Advertisements
Track Severe Weather on mobile